createdAt,value
2023-01-09T16:45:51.893Z,1.31
2023-01-09T16:48:20.488Z,3.07
2023-01-09T16:50:47.645Z,3.50
2023-01-09T16:53:21.458Z,3.63
2023-01-09T16:55:48.015Z,3.69
2023-01-09T16:58:18.239Z,3.75
2023-01-09T17:00:45.286Z,4.05
2023-01-09T17:03:17.041Z,4.15
2023-01-09T17:05:43.755Z,-101.57
2023-01-09T17:08:20.471Z,-128.00
2023-01-09T17:10:47.664Z,-128.00
2023-01-09T17:13:14.508Z,-128.00
2023-01-09T17:15:45.283Z,-128.00
2023-01-09T17:18:16.145Z,-128.00
2023-01-09T17:20:44.065Z,-128.00
2023-01-09T17:23:11.005Z,-128.00
2023-01-09T17:25:56.365Z,-128.00
2023-01-09T17:28:31.941Z,-128.00
2023-01-09T17:31:02.846Z,-128.00
2023-01-09T17:33:29.585Z,-128.00
2023-01-09T17:35:56.452Z,-128.00
2023-01-09T17:38:23.383Z,-128.00
2023-01-09T17:40:50.216Z,-128.00
2023-01-09T17:43:18.396Z,-128.00
2023-01-09T17:45:45.355Z,-128.00
2023-01-09T17:48:20.352Z,-128.00
2023-01-09T17:50:47.858Z,-128.00
2023-01-09T17:53:15.179Z,-128.00
2023-01-09T17:55:41.935Z,-128.00
2023-01-09T17:58:29.552Z,-128.00
2023-01-09T18:00:56.550Z,-128.00
2023-01-09T18:03:25.305Z,-128.00
2023-01-09T18:05:52.334Z,-128.00
2023-01-09T18:08:18.940Z,-128.00
2023-01-09T18:10:47.780Z,-128.00
2023-01-09T18:13:15.853Z,-128.00
2023-01-09T18:15:43.384Z,-128.00
2023-01-09T18:18:10.954Z,-128.00
2023-01-09T18:20:39.740Z,-128.00
2023-01-09T18:23:06.945Z,-128.00
2023-01-09T18:25:34.545Z,-128.00
2023-01-09T18:28:02.646Z,-128.00
2023-01-09T18:30:29.344Z,-128.00
2023-01-09T18:32:55.950Z,-128.00
2023-01-09T18:35:22.980Z,-128.00
2023-01-09T18:37:49.593Z,-128.00
2023-01-09T18:40:17.106Z,-128.00
2023-01-09T18:42:45.731Z,-128.00
2023-01-09T18:45:12.543Z,-128.00
2023-01-09T18:47:39.227Z,-128.00
2023-01-09T18:50:06.198Z,-128.00
2023-01-09T18:52:32.797Z,-128.00
2023-01-09T18:54:59.332Z,-128.00
2023-01-09T18:57:25.928Z,-128.00
2023-01-09T18:59:52.505Z,-128.00
2023-01-09T19:02:21.699Z,-128.00
2023-01-09T19:04:48.339Z,-128.00
2023-01-09T19:07:15.339Z,-128.00
2023-01-09T19:09:45.270Z,-128.00
2023-01-09T19:12:12.057Z,-128.00
2023-01-09T19:14:41.761Z,-128.00
2023-01-09T19:17:08.308Z,-128.00
2023-01-09T19:19:35.204Z,-128.00
2023-01-09T19:22:01.966Z,-128.00
2023-01-09T19:24:30.876Z,-128.00
2023-01-09T19:26:58.312Z,-128.00
2023-01-09T19:29:25.160Z,-128.00
2023-01-09T19:31:52.582Z,-128.00
2023-01-09T19:34:19.827Z,-128.00
2023-01-09T19:36:47.189Z,-128.00
2023-01-09T19:39:14.462Z,-128.00
2023-01-09T19:41:41.452Z,-128.00
2023-01-09T19:44:08.789Z,-128.00
2023-01-09T19:46:36.368Z,-128.00
2023-01-09T19:49:05.797Z,-128.00
2023-01-09T19:51:33.321Z,-128.00
2023-01-09T19:54:03.002Z,-128.00
2023-01-09T19:56:31.116Z,-128.00
2023-01-09T19:59:03.286Z,-128.00
2023-01-09T20:01:33.952Z,-128.00
2023-01-09T20:04:04.196Z,-128.00
2023-01-09T20:06:30.990Z,-128.00
2023-01-09T20:08:59.301Z,-128.00
2023-01-09T20:11:27.861Z,-128.00
2023-01-09T20:13:54.983Z,-128.00
2023-01-09T20:16:27.434Z,-128.00
2023-01-09T20:18:56.957Z,-128.00
2023-01-09T20:21:25.813Z,-128.00
2023-01-09T20:23:53.970Z,-128.00
2023-01-09T20:26:22.991Z,-128.00
2023-01-09T20:28:49.724Z,-128.00
2023-01-09T20:31:18.015Z,-128.00
2023-01-09T20:33:45.770Z,-128.00
2023-01-09T20:36:12.378Z,-128.00
2023-01-09T20:38:39.706Z,-128.00
2023-01-09T20:41:21.835Z,-128.00
2023-01-09T20:43:52.839Z,-128.00
2023-01-09T20:46:21.863Z,-128.00
2023-01-09T20:48:49.056Z,-128.00
2023-01-09T20:51:15.715Z,-128.00
2023-01-09T20:53:46.534Z,-128.00
2023-01-09T20:56:13.192Z,-128.00
2023-01-09T20:58:41.620Z,-128.00
2023-01-09T21:01:10.297Z,-128.00
2023-01-09T21:03:36.968Z,-128.00
2023-01-09T21:06:05.656Z,-128.00
2023-01-09T21:08:32.417Z,-128.00
2023-01-09T21:11:01.583Z,-128.00
2023-01-09T21:13:29.969Z,-128.00
2023-01-09T21:16:03.826Z,-128.00
2023-01-09T21:18:31.234Z,-128.00
2023-01-09T21:21:01.870Z,-128.00
2023-01-09T21:23:29.429Z,-128.00
2023-01-09T21:25:55.931Z,-128.00
2023-01-09T21:28:23.537Z,-128.00
2023-01-09T21:30:50.016Z,-128.00
2023-01-09T21:33:23.227Z,-128.00
2023-01-09T21:35:57.119Z,-128.00
2023-01-09T21:38:24.698Z,-128.00
2023-01-09T21:40:52.368Z,-128.00
2023-01-09T21:43:45.843Z,-128.00
2023-01-09T21:46:35.452Z,-128.00
2023-01-09T21:49:02.946Z,-128.00
2023-01-09T21:51:29.537Z,-128.00
2023-01-09T21:53:56.527Z,-128.00
2023-01-09T21:56:23.077Z,-128.00
2023-01-09T21:58:49.613Z,-128.00
